sensor_id;sensor_type;location;lat;lon;timestamp;pressure;altitude;pressure_sealevel;temperature;humidity
40384;BME280;26097;42.366;23.818;2022-07-10T00:02:42;94045.41;;;13.55;98.81
40384;BME280;26097;42.366;23.818;2022-07-10T00:05:42;94038.53;;;13.54;99.35
40384;BME280;26097;42.366;23.818;2022-07-10T00:08:43;94035.09;;;13.44;100.00
40384;BME280;26097;42.366;23.818;2022-07-10T00:11:43;94029.94;;;13.42;100.00
40384;BME280;26097;42.366;23.818;2022-07-10T00:14:44;94025.25;;;13.36;100.00
40384;BME280;26097;42.366;23.818;2022-07-10T00:17:44;94028.28;;;13.41;100.00
40384;BME280;26097;42.366;23.818;2022-07-10T00:20:45;94027.22;;;13.44;100.00
40384;BME280;26097;42.366;23.818;2022-07-10T00:23:46;94026.38;;;13.43;100.00
40384;BME280;26097;42.366;23.818;2022-07-10T00:26:46;94016.47;;;13.47;100.00
40384;BME280;26097;42.366;23.818;2022-07-10T00:29:47;94006.00;;;13.47;100.00
40384;BME280;26097;42.366;23.818;2022-07-10T00:32:48;94008.22;;;13.52;99.78
40384;BME280;26097;42.366;23.818;2022-07-10T00:35:48;93996.38;;;13.77;98.22
40384;BME280;26097;42.366;23.818;2022-07-10T00:38:49;93990.59;;;13.74;98.99
40384;BME280;26097;42.366;23.818;2022-07-10T00:41:49;93993.50;;;13.61;99.77
40384;BME280;26097;42.366;23.818;2022-07-10T00:44:49;93991.69;;;13.61;99.65
40384;BME280;26097;42.366;23.818;2022-07-10T00:47:50;93993.91;;;13.66;98.88
40384;BME280;26097;42.366;23.818;2022-07-10T00:50:50;93997.75;;;13.71;98.97
40384;BME280;26097;42.366;23.818;2022-07-10T00:53:52;93995.81;;;13.54;99.28
40384;BME280;26097;42.366;23.818;2022-07-10T00:56:53;93993.88;;;13.46;99.48
40384;BME280;26097;42.366;23.818;2022-07-10T00:59:54;93989.44;;;13.37;100.00
40384;BME280;26097;42.366;23.818;2022-07-10T01:02:54;93996.56;;;13.25;100.00
40384;BME280;26097;42.366;23.818;2022-07-10T01:05:55;93991.06;;;13.18;100.00
40384;BME280;26097;42.366;23.818;2022-07-10T01:08:55;93978.94;;;13.07;100.00
40384;BME280;26097;42.366;23.818;2022-07-10T01:11:56;93977.13;;;13.08;100.00
40384;BME280;26097;42.366;23.818;2022-07-10T01:14:58;93973.66;;;12.88;100.00
40384;BME280;26097;42.366;23.818;2022-07-10T01:17:59;93968.63;;;12.75;100.00
40384;BME280;26097;42.366;23.818;2022-07-10T01:20:59;93969.06;;;12.70;100.00
40384;BME280;26097;42.366;23.818;2022-07-10T01:24:04;93969.97;;;12.59;100.00
40384;BME280;26097;42.366;23.818;2022-07-10T01:27:05;93970.47;;;12.53;100.00
40384;BME280;26097;42.366;23.818;2022-07-10T01:30:06;93955.59;;;12.43;100.00
40384;BME280;26097;42.366;23.818;2022-07-10T01:33:06;93952.28;;;12.41;100.00
40384;BME280;26097;42.366;23.818;2022-07-10T01:36:07;93958.97;;;12.34;100.00
40384;BME280;26097;42.366;23.818;2022-07-10T01:39:07;93949.75;;;12.30;100.00
40384;BME280;26097;42.366;23.818;2022-07-10T01:42:08;93945.09;;;12.34;100.00
40384;BME280;26097;42.366;23.818;2022-07-10T01:45:09;93945.22;;;12.63;100.00
40384;BME280;26097;42.366;23.818;2022-07-10T01:48:10;93938.72;;;12.57;100.00
40384;BME280;26097;42.366;23.818;2022-07-10T01:51:11;93945.22;;;12.63;100.00
40384;BME280;26097;42.366;23.818;2022-07-10T01:54:11;93935.88;;;12.70;100.00
40384;BME280;26097;42.366;23.818;2022-07-10T01:57:12;93939.88;;;12.75;100.00
40384;BME280;26097;42.366;23.818;2022-07-10T02:00:13;93934.94;;;12.81;100.00
40384;BME280;26097;42.366;23.818;2022-07-10T02:03:14;93940.59;;;12.96;100.00
40384;BME280;26097;42.366;23.818;2022-07-10T02:06:33;93931.00;;;13.07;100.00
40384;BME280;26097;42.366;23.818;2022-07-10T02:09:33;93931.28;;;13.04;100.00
40384;BME280;26097;42.366;23.818;2022-07-10T02:12:34;93929.47;;;13.04;100.00
40384;BME280;26097;42.366;23.818;2022-07-10T02:15:34;93935.66;;;13.13;100.00
40384;BME280;26097;42.366;23.818;2022-07-10T02:18:34;93934.19;;;13.20;100.00
40384;BME280;26097;42.366;23.818;2022-07-10T02:21:35;93931.84;;;13.17;100.00
40384;BME280;26097;42.366;23.818;2022-07-10T02:24:35;93926.59;;;13.17;100.00
40384;BME280;26097;42.366;23.818;2022-07-10T02:27:36;93925.22;;;13.13;100.00
40384;BME280;26097;42.366;23.818;2022-07-10T02:30:36;93933.50;;;13.18;100.00
40384;BME280;26097;42.366;23.818;2022-07-10T02:33:37;93931.84;;;13.17;100.00
40384;BME280;26097;42.366;23.818;2022-07-10T02:36:38;93937.06;;;13.17;100.00
40384;BME280;26097;42.366;23.818;2022-07-10T02:39:39;93928.94;;;13.20;100.00
40384;BME280;26097;42.366;23.818;2022-07-10T02:42:39;93940.38;;;13.19;100.00
40384;BME280;26097;42.366;23.818;2022-07-10T02:45:39;93940.63;;;13.16;100.00
40384;BME280;26097;42.366;23.818;2022-07-10T02:48:40;93940.38;;;13.19;100.00
40384;BME280;26097;42.366;23.818;2022-07-10T02:51:40;93940.78;;;13.24;100.00
40384;BME280;26097;42.366;23.818;2022-07-10T02:54:41;93940.91;;;13.23;100.00
40384;BME280;26097;42.366;23.818;2022-07-10T02:57:42;93945.19;;;13.24;100.00
40384;BME280;26097;42.366;23.818;2022-07-10T03:00:42;93948.38;;;13.27;100.00
40384;BME280;26097;42.366;23.818;2022-07-10T03:03:42;93950.97;;;13.27;100.00
40384;BME280;26097;42.366;23.818;2022-07-10T03:06:43;93953.03;;;13.24;100.00
40384;BME280;26097;42.366;23.818;2022-07-10T03:09:43;93954.44;;;13.18;100.00
40384;BME280;26097;42.366;23.818;2022-07-10T03:12:44;93961.31;;;13.19;100.00
40384;BME280;26097;42.366;23.818;2022-07-10T03:15:44;93951.66;;;13.20;100.00
40384;BME280;26097;42.366;23.818;2022-07-10T03:18:45;93963.78;;;13.21;100.00
40384;BME280;26097;42.366;23.818;2022-07-10T03:21:45;93965.16;;;13.15;100.00
40384;BME280;26097;42.366;23.818;2022-07-10T03:24:46;93967.91;;;13.13;100.00
40384;BME280;26097;42.366;23.818;2022-07-10T03:27:47;93968.19;;;13.10;100.00
40384;BME280;26097;42.366;23.818;2022-07-10T03:30:47;93971.22;;;13.16;100.00
40384;BME280;26097;42.366;23.818;2022-07-10T03:33:47;93966.78;;;13.16;100.00
40384;BME280;26097;42.366;23.818;2022-07-10T03:36:48;93960.75;;;13.16;100.00
40384;BME280;26097;42.366;23.818;2022-07-10T03:39:48;93956.78;;;13.21;100.00
40384;BME280;26097;42.366;23.818;2022-07-10T03:42:49;93961.84;;;13.23;100.00
40384;BME280;26097;42.366;23.818;2022-07-10T03:45:49;93953.59;;;13.27;100.00
40384;BME280;26097;42.366;23.818;2022-07-10T03:48:50;93959.13;;;13.34;100.00
40384;BME280;26097;42.366;23.818;2022-07-10T03:51:52;93958.88;;;13.47;100.00
40384;BME280;26097;42.366;23.818;2022-07-10T03:54:54;93964.25;;;13.55;100.00
40384;BME280;26097;42.366;23.818;2022-07-10T03:57:54;93961.63;;;13.65;100.00
40384;BME280;26097;42.366;23.818;2022-07-10T04:00:55;93957.09;;;13.77;100.00
40384;BME280;26097;42.366;23.818;2022-07-10T04:03:56;93950.59;;;13.81;100.00
40384;BME280;26097;42.366;23.818;2022-07-10T04:06:56;93957.47;;;13.92;100.00
40384;BME280;26097;42.366;23.818;2022-07-10T04:09:56;93957.19;;;14.05;100.00
40384;BME280;26097;42.366;23.818;2022-07-10T04:12:57;93958.53;;;14.09;100.00
40384;BME280;26097;42.366;23.818;2022-07-10T04:15:58;93957.72;;;14.19;100.00
40384;BME280;26097;42.366;23.818;2022-07-10T04:18:59;93953.53;;;14.26;100.00
40384;BME280;26097;42.366;23.818;2022-07-10T04:21:59;93946.22;;;14.30;99.53
40384;BME280;26097;42.366;23.818;2022-07-10T04:25:00;93948.25;;;14.36;99.42
40384;BME280;26097;42.366;23.818;2022-07-10T04:28:00;93944.63;;;14.47;98.82
40384;BME280;26097;42.366;23.818;2022-07-10T04:31:00;93950.69;;;14.57;98.65
40384;BME280;26097;42.366;23.818;2022-07-10T04:34:01;93960.56;;;14.73;98.52
40384;BME280;26097;42.366;23.818;2022-07-10T04:37:02;93951.44;;;14.77;97.82
40384;BME280;26097;42.366;23.818;2022-07-10T04:40:03;93956.94;;;14.84;97.19
40384;BME280;26097;42.366;23.818;2022-07-10T04:43:05;93945.84;;;14.90;96.63
40384;BME280;26097;42.366;23.818;2022-07-10T04:46:05;93951.28;;;15.07;96.18
40384;BME280;26097;42.366;23.818;2022-07-10T04:49:07;93938.47;;;15.22;95.74
40384;BME280;26097;42.366;23.818;2022-07-10T04:52:07;93940.44;;;15.38;94.97
40384;BME280;26097;42.366;23.818;2022-07-10T04:55:08;93937.28;;;15.52;94.97
40384;BME280;26097;42.366;23.818;2022-07-10T04:58:08;93938.56;;;15.66;93.80
40384;BME280;26097;42.366;23.818;2022-07-10T05:01:09;93926.16;;;15.77;93.47
40384;BME280;26097;42.366;23.818;2022-07-10T05:04:10;93933.28;;;15.84;89.95
40384;BME280;26097;42.366;23.818;2022-07-10T05:07:10;93924.00;;;15.90;89.35
40384;BME280;26097;42.366;23.818;2022-07-10T05:10:11;93929.00;;;16.02;88.71
40384;BME280;26097;42.366;23.818;2022-07-10T05:13:11;93925.66;;;16.18;89.33
40384;BME280;26097;42.366;23.818;2022-07-10T05:16:12;93932.00;;;16.33;89.01
40384;BME280;26097;42.366;23.818;2022-07-10T05:19:13;93930.72;;;16.46;88.87
40384;BME280;26097;42.366;23.818;2022-07-10T05:22:14;93936.41;;;16.59;88.82
40384;BME280;26097;42.366;23.818;2022-07-10T05:25:14;93931.81;;;16.69;88.05
40384;BME280;26097;42.366;23.818;2022-07-10T05:28:15;93929.25;;;16.86;87.77
40384;BME280;26097;42.366;23.818;2022-07-10T05:31:15;93935.03;;;16.90;85.87
40384;BME280;26097;42.366;23.818;2022-07-10T05:34:15;93942.88;;;17.16;86.31
40384;BME280;26097;42.366;23.818;2022-07-10T05:37:16;93932.72;;;17.30;84.56
40384;BME280;26097;42.366;23.818;2022-07-10T05:40:16;93928.81;;;17.50;84.76
40384;BME280;26097;42.366;23.818;2022-07-10T05:43:17;93927.16;;;17.49;85.18
40384;BME280;26097;42.366;23.818;2022-07-10T05:46:17;93922.53;;;17.60;85.38
40384;BME280;26097;42.366;23.818;2022-07-10T05:49:18;93923.19;;;17.53;84.30
40384;BME280;26097;42.366;23.818;2022-07-10T05:52:18;93923.53;;;17.59;86.36
40384;BME280;26097;42.366;23.818;2022-07-10T05:55:19;93925.50;;;17.81;85.23
40384;BME280;26097;42.366;23.818;2022-07-10T05:58:19;93924.84;;;17.96;82.39
40384;BME280;26097;42.366;23.818;2022-07-10T06:01:19;93922.69;;;18.16;79.61
40384;BME280;26097;42.366;23.818;2022-07-10T06:04:20;93921.22;;;18.30;80.30
40384;BME280;26097;42.366;23.818;2022-07-10T06:07:21;93922.53;;;18.18;79.15
40384;BME280;26097;42.366;23.818;2022-07-10T06:10:21;93921.84;;;18.24;80.36
40384;BME280;26097;42.366;23.818;2022-07-10T06:13:22;93920.22;;;18.31;78.10
40384;BME280;26097;42.366;23.818;2022-07-10T06:16:22;93912.56;;;18.45;78.65
40384;BME280;26097;42.366;23.818;2022-07-10T06:19:23;93916.81;;;18.62;77.05
40384;BME280;26097;42.366;23.818;2022-07-10T06:22:23;93921.03;;;18.80;74.68
40384;BME280;26097;42.366;23.818;2022-07-10T06:25:33;93918.78;;;19.17;74.82
40384;BME280;26097;42.366;23.818;2022-07-10T06:28:34;93913.38;;;19.57;74.01
40384;BME280;26097;42.366;23.818;2022-07-10T06:31:35;93906.28;;;19.57;71.86
40384;BME280;26097;42.366;23.818;2022-07-10T06:34:35;93903.06;;;19.70;71.71
40384;BME280;26097;42.366;23.818;2022-07-10T06:37:36;93906.09;;;20.05;71.87
40384;BME280;26097;42.366;23.818;2022-07-10T06:40:37;93907.66;;;20.15;69.83
40384;BME280;26097;42.366;23.818;2022-07-10T06:43:37;93907.81;;;20.13;68.62
40384;BME280;26097;42.366;23.818;2022-07-10T06:46:38;93905.09;;;20.06;69.24
40384;BME280;26097;42.366;23.818;2022-07-10T06:49:39;93902.34;;;20.00;69.82
40384;BME280;26097;42.366;23.818;2022-07-10T06:52:39;93906.66;;;20.16;68.51
40384;BME280;26097;42.366;23.818;2022-07-10T06:55:40;93897.63;;;19.87;68.84
40384;BME280;26097;42.366;23.818;2022-07-10T06:58:41;93908.69;;;19.67;70.01
40384;BME280;26097;42.366;23.818;2022-07-10T07:01:41;93897.28;;;19.90;69.01
40384;BME280;26097;42.366;23.818;2022-07-10T07:04:41;93893.97;;;19.88;70.19
40384;BME280;26097;42.366;23.818;2022-07-10T07:07:42;93889.47;;;19.73;69.42
40384;BME280;26097;42.366;23.818;2022-07-10T07:10:43;93897.41;;;19.50;68.95
40384;BME280;26097;42.366;23.818;2022-07-10T07:13:44;93906.22;;;19.65;68.53
40384;BME280;26097;42.366;23.818;2022-07-10T07:16:45;93896.69;;;19.79;69.27
40384;BME280;26097;42.366;23.818;2022-07-10T07:19:50;93908.34;;;19.70;69.17
40384;BME280;26097;42.366;23.818;2022-07-10T07:23:09;93896.00;;;19.86;68.91
40384;BME280;26097;42.366;23.818;2022-07-10T07:26:10;93896.28;;;20.29;68.98
40384;BME280;26097;42.366;23.818;2022-07-10T07:29:10;93900.28;;;20.25;66.61
40384;BME280;26097;42.366;23.818;2022-07-10T07:32:10;93896.81;;;20.39;65.84
40384;BME280;26097;42.366;23.818;2022-07-10T07:35:12;93901.84;;;20.64;65.13
40384;BME280;26097;42.366;23.818;2022-07-10T07:38:13;93896.00;;;20.39;66.68
40384;BME280;26097;42.366;23.818;2022-07-10T07:41:13;93894.00;;;20.26;67.42
40384;BME280;26097;42.366;23.818;2022-07-10T07:44:15;93904.22;;;20.29;65.65
40384;BME280;26097;42.366;23.818;2022-07-10T07:47:17;93901.41;;;20.46;67.23
40384;BME280;26097;42.366;23.818;2022-07-10T07:50:20;93903.66;;;20.64;65.63
40384;BME280;26097;42.366;23.818;2022-07-10T07:53:21;93901.19;;;20.62;65.81
40384;BME280;26097;42.366;23.818;2022-07-10T07:56:22;93903.47;;;20.50;64.73
40384;BME280;26097;42.366;23.818;2022-07-10T07:59:22;93901.00;;;21.09;65.37
40384;BME280;26097;42.366;23.818;2022-07-10T08:02:22;93909.66;;;21.18;64.51
40384;BME280;26097;42.366;23.818;2022-07-10T08:05:23;93905.03;;;20.75;63.21
40384;BME280;26097;42.366;23.818;2022-07-10T08:08:24;93903.50;;;20.65;64.65
40384;BME280;26097;42.366;23.818;2022-07-10T08:11:24;93905.63;;;20.85;65.29
40384;BME280;26097;42.366;23.818;2022-07-10T08:14:25;93904.41;;;20.88;66.12
40384;BME280;26097;42.366;23.818;2022-07-10T08:17:26;93897.19;;;20.66;64.71
40384;BME280;26097;42.366;23.818;2022-07-10T08:20:27;93905.66;;;21.07;65.06
40384;BME280;26097;42.366;23.818;2022-07-10T08:23:27;93901.88;;;21.53;64.39
40384;BME280;26097;42.366;23.818;2022-07-10T08:26:27;93890.06;;;21.55;64.17
40384;BME280;26097;42.366;23.818;2022-07-10T08:29:28;93901.19;;;21.88;60.67
40384;BME280;26097;42.366;23.818;2022-07-10T08:32:31;93878.59;;;22.49;61.43
40384;BME280;26097;42.366;23.818;2022-07-10T08:35:32;93888.03;;;22.58;59.24
40384;BME280;26097;42.366;23.818;2022-07-10T08:38:32;93902.00;;;22.74;58.40
40384;BME280;26097;42.366;23.818;2022-07-10T08:41:35;93891.94;;;23.11;59.31
40384;BME280;26097;42.366;23.818;2022-07-10T08:44:37;93900.78;;;22.70;57.77
40384;BME280;26097;42.366;23.818;2022-07-10T08:47:38;93895.63;;;22.61;59.93
40384;BME280;26097;42.366;23.818;2022-07-10T08:50:44;93895.84;;;22.66;60.15
40384;BME280;26097;42.366;23.818;2022-07-10T08:53:47;93896.50;;;22.75;58.27
40384;BME280;26097;42.366;23.818;2022-07-10T08:56:50;93899.75;;;22.42;58.16
40384;BME280;26097;42.366;23.818;2022-07-10T08:59:52;93898.13;;;22.13;59.79
40384;BME280;26097;42.366;23.818;2022-07-10T09:02:54;93896.03;;;22.36;58.96
40384;BME280;26097;42.366;23.818;2022-07-10T09:05:55;93902.03;;;22.80;58.47
40384;BME280;26097;42.366;23.818;2022-07-10T09:11:58;93889.47;;;23.03;58.83
40384;BME280;26097;42.366;23.818;2022-07-10T09:15:15;93892.28;;;22.94;57.04
40384;BME280;26097;42.366;23.818;2022-07-10T09:18:19;93894.03;;;22.74;56.28
40384;BME280;26097;42.366;23.818;2022-07-10T09:21:23;93887.06;;;22.66;56.19
40384;BME280;26097;42.366;23.818;2022-07-10T09:24:23;93879.28;;;22.64;57.00
40384;BME280;26097;42.366;23.818;2022-07-10T09:27:24;93893.50;;;22.85;57.64
40384;BME280;26097;42.366;23.818;2022-07-10T09:30:57;93882.00;;;22.78;57.39
40384;BME280;26097;42.366;23.818;2022-07-10T09:33:51;93890.03;;;22.91;54.49
40384;BME280;26097;42.366;23.818;2022-07-10T09:36:51;93889.88;;;23.00;56.24
40384;BME280;26097;42.366;23.818;2022-07-10T09:42:58;93882.53;;;23.71;53.96
40384;BME280;26097;42.366;23.818;2022-07-10T09:46:00;93890.97;;;22.77;54.56
40384;BME280;26097;42.366;23.818;2022-07-10T09:52:05;93902.03;;;21.66;58.47
40384;BME280;26097;42.366;23.818;2022-07-10T09:55:06;93899.78;;;21.48;60.05
40384;BME280;26097;42.366;23.818;2022-07-10T09:58:09;93896.63;;;21.60;59.97
40384;BME280;26097;42.366;23.818;2022-07-10T10:01:09;93891.31;;;21.60;59.94
40384;BME280;26097;42.366;23.818;2022-07-10T10:04:10;93876.66;;;22.07;58.86
40384;BME280;26097;42.366;23.818;2022-07-10T10:07:11;93872.50;;;23.04;56.62
40384;BME280;26097;42.366;23.818;2022-07-10T10:10:14;93867.78;;;23.68;55.95
40384;BME280;26097;42.366;23.818;2022-07-10T10:13:20;93870.78;;;23.38;54.36
40384;BME280;26097;42.366;23.818;2022-07-10T10:16:21;93858.38;;;22.90;55.35
40384;BME280;26097;42.366;23.818;2022-07-10T10:19:26;93862.94;;;23.23;56.67
40384;BME280;26097;42.366;23.818;2022-07-10T10:22:45;93853.41;;;22.87;56.56
40384;BME280;26097;42.366;23.818;2022-07-10T10:25:57;93853.50;;;23.07;58.68
40384;BME280;26097;42.366;23.818;2022-07-10T10:28:59;93854.06;;;23.51;57.25
40384;BME280;26097;42.366;23.818;2022-07-10T10:32:01;93846.19;;;23.22;56.36
40384;BME280;26097;42.366;23.818;2022-07-10T10:35:01;93857.31;;;22.84;56.33
40384;BME280;26097;42.366;23.818;2022-07-10T10:38:04;93850.53;;;22.81;57.35
40384;BME280;26097;42.366;23.818;2022-07-10T10:41:46;93854.69;;;22.97;57.11
40384;BME280;26097;42.366;23.818;2022-07-10T10:44:42;93846.69;;;23.60;54.96
40384;BME280;26097;42.366;23.818;2022-07-10T10:48:05;93842.16;;;24.34;50.71
40384;BME280;26097;42.366;23.818;2022-07-10T10:51:06;93832.22;;;24.82;50.86
40384;BME280;26097;42.366;23.818;2022-07-10T10:54:06;93834.41;;;24.33;51.00
40384;BME280;26097;42.366;23.818;2022-07-10T10:57:17;93829.50;;;23.89;52.33
40384;BME280;26097;42.366;23.818;2022-07-10T11:00:32;93820.28;;;23.65;51.56
40384;BME280;26097;42.366;23.818;2022-07-10T11:03:37;93830.19;;;23.09;52.31
40384;BME280;26097;42.366;23.818;2022-07-10T11:06:39;93824.88;;;23.09;53.27
40384;BME280;26097;42.366;23.818;2022-07-10T11:09:40;93820.91;;;23.40;55.34
40384;BME280;26097;42.366;23.818;2022-07-10T11:12:59;93822.50;;;23.48;55.48
40384;BME280;26097;42.366;23.818;2022-07-10T11:16:00;93829.38;;;23.02;52.22
40384;BME280;26097;42.366;23.818;2022-07-10T11:19:01;93823.09;;;22.67;53.42
40384;BME280;26097;42.366;23.818;2022-07-10T11:22:13;93824.34;;;22.72;55.63
40384;BME280;26097;42.366;23.818;2022-07-10T11:25:33;93817.56;;;22.62;55.60
40384;BME280;26097;42.366;23.818;2022-07-10T11:28:51;93819.63;;;22.67;56.33
40384;BME280;26097;42.366;23.818;2022-07-10T11:31:55;93816.63;;;22.83;55.57
40384;BME280;26097;42.366;23.818;2022-07-10T11:34:55;93808.34;;;23.20;54.31
40384;BME280;26097;42.366;23.818;2022-07-10T11:37:56;93804.94;;;23.80;55.04
40384;BME280;26097;42.366;23.818;2022-07-10T11:40:56;93799.91;;;24.58;52.77
40384;BME280;26097;42.366;23.818;2022-07-10T11:43:57;93798.47;;;25.40;50.61
40384;BME280;26097;42.366;23.818;2022-07-10T11:46:58;93801.59;;;26.13;48.65
40384;BME280;26097;42.366;23.818;2022-07-10T11:50:00;93790.69;;;25.71;47.10
40384;BME280;26097;42.366;23.818;2022-07-10T11:53:00;93793.47;;;25.83;48.22
40384;BME280;26097;42.366;23.818;2022-07-10T11:56:00;93805.13;;;24.26;48.91
40384;BME280;26097;42.366;23.818;2022-07-10T11:59:03;93806.56;;;23.95;51.68
40384;BME280;26097;42.366;23.818;2022-07-10T12:02:04;93807.00;;;23.58;53.03
40384;BME280;26097;42.366;23.818;2022-07-10T12:05:04;93804.94;;;23.40;53.84
40384;BME280;26097;42.366;23.818;2022-07-10T12:08:06;93811.47;;;23.58;58.92
40384;BME280;26097;42.366;23.818;2022-07-10T12:11:14;93807.81;;;23.45;52.78
40384;BME280;26097;42.366;23.818;2022-07-10T12:14:19;93804.31;;;23.85;54.83
40384;BME280;26097;42.366;23.818;2022-07-10T12:17:20;93804.50;;;23.97;53.92
40384;BME280;26097;42.366;23.818;2022-07-10T12:20:21;93800.84;;;23.91;54.67
40384;BME280;26097;42.366;23.818;2022-07-10T12:23:21;93800.25;;;23.82;53.71
40384;BME280;26097;42.366;23.818;2022-07-10T12:26:31;93808.63;;;23.39;54.77
40384;BME280;26097;42.366;23.818;2022-07-10T12:29:32;93801.66;;;23.51;54.99
40384;BME280;26097;42.366;23.818;2022-07-10T12:32:32;93802.47;;;24.13;53.28
40384;BME280;26097;42.366;23.818;2022-07-10T12:35:57;93807.34;;;24.29;55.23
40384;BME280;26097;42.366;23.818;2022-07-10T12:38:58;93809.84;;;23.90;54.15
40384;BME280;26097;42.366;23.818;2022-07-10T12:42:05;93818.03;;;23.55;54.42
40384;BME280;26097;42.366;23.818;2022-07-10T12:45:12;93793.47;;;23.46;54.91
40384;BME280;26097;42.366;23.818;2022-07-10T12:48:21;93804.28;;;23.38;56.66
40384;BME280;26097;42.366;23.818;2022-07-10T12:51:27;93801.25;;;23.81;55.15
40384;BME280;26097;42.366;23.818;2022-07-10T12:54:36;93790.53;;;25.33;51.79
40384;BME280;26097;42.366;23.818;2022-07-10T12:57:53;93784.50;;;26.21;49.37
40384;BME280;26097;42.366;23.818;2022-07-10T13:00:54;93782.38;;;26.30;47.45
40384;BME280;26097;42.366;23.818;2022-07-10T13:03:59;93786.66;;;25.87;47.73
40384;BME280;26097;42.366;23.818;2022-07-10T13:07:12;93791.44;;;25.20;49.81
40384;BME280;26097;42.366;23.818;2022-07-10T13:10:15;93793.28;;;24.81;49.22
40384;BME280;26097;42.366;23.818;2022-07-10T13:13:15;93793.88;;;24.10;53.56
40384;BME280;26097;42.366;23.818;2022-07-10T13:16:16;93785.09;;;23.70;53.43
40384;BME280;26097;42.366;23.818;2022-07-10T13:19:16;93788.50;;;24.37;52.11
40384;BME280;26097;42.366;23.818;2022-07-10T13:22:17;93777.09;;;23.83;55.23
40384;BME280;26097;42.366;23.818;2022-07-10T13:25:18;93774.63;;;23.28;55.84
40384;BME280;26097;42.366;23.818;2022-07-10T13:28:18;93773.31;;;22.96;55.43
40384;BME280;26097;42.366;23.818;2022-07-10T13:31:19;93776.09;;;22.61;56.21
40384;BME280;26097;42.366;23.818;2022-07-10T13:34:19;93784.13;;;22.39;57.45
40384;BME280;26097;42.366;23.818;2022-07-10T13:37:20;93792.22;;;22.24;58.43
40384;BME280;26097;42.366;23.818;2022-07-10T13:40:20;93788.16;;;22.22;58.77
40384;BME280;26097;42.366;23.818;2022-07-10T13:43:21;93789.00;;;22.29;61.93
40384;BME280;26097;42.366;23.818;2022-07-10T13:46:21;93791.63;;;22.64;58.82
40384;BME280;26097;42.366;23.818;2022-07-10T13:49:22;93794.91;;;23.35;56.56
40384;BME280;26097;42.366;23.818;2022-07-10T13:52:22;93782.03;;;23.66;54.74
40384;BME280;26097;42.366;23.818;2022-07-10T13:55:23;93774.66;;;23.54;53.61
40384;BME280;26097;42.366;23.818;2022-07-10T13:58:23;93777.13;;;23.29;54.06
40384;BME280;26097;42.366;23.818;2022-07-10T14:01:23;93776.72;;;23.39;50.91
40384;BME280;26097;42.366;23.818;2022-07-10T14:04:24;93776.81;;;24.91;49.89
40384;BME280;26097;42.366;23.818;2022-07-10T14:07:24;93772.50;;;25.29;47.68
40384;BME280;26097;42.366;23.818;2022-07-10T14:10:25;93771.97;;;25.45;45.86
40384;BME280;26097;42.366;23.818;2022-07-10T14:13:26;93774.78;;;25.83;46.14
40384;BME280;26097;42.366;23.818;2022-07-10T14:16:27;93778.06;;;26.03;46.31
40384;BME280;26097;42.366;23.818;2022-07-10T14:19:27;93779.88;;;25.84;45.90
40384;BME280;26097;42.366;23.818;2022-07-10T14:22:28;93779.38;;;25.50;47.73
40384;BME280;26097;42.366;23.818;2022-07-10T14:25:28;93782.47;;;25.08;47.31
40384;BME280;26097;42.366;23.818;2022-07-10T14:28:28;93790.69;;;24.54;47.45
40384;BME280;26097;42.366;23.818;2022-07-10T14:31:29;93780.09;;;24.41;48.11
40384;BME280;26097;42.366;23.818;2022-07-10T14:34:29;93783.09;;;24.51;48.21
40384;BME280;26097;42.366;23.818;2022-07-10T14:37:30;93783.88;;;24.65;48.05
40384;BME280;26097;42.366;23.818;2022-07-10T14:40:30;93784.22;;;23.96;48.39
40384;BME280;26097;42.366;23.818;2022-07-10T14:43:31;93793.47;;;23.46;48.01
40384;BME280;26097;42.366;23.818;2022-07-10T14:46:33;93786.50;;;23.38;48.58
40384;BME280;26097;42.366;23.818;2022-07-10T14:49:34;93785.69;;;23.38;47.69
40384;BME280;26097;42.366;23.818;2022-07-10T14:52:34;93788.50;;;23.16;49.21
40384;BME280;26097;42.366;23.818;2022-07-10T14:55:37;93794.09;;;22.73;49.43
40384;BME280;26097;42.366;23.818;2022-07-10T14:58:37;93790.78;;;22.57;50.81
40384;BME280;26097;42.366;23.818;2022-07-10T15:01:38;93793.28;;;22.30;51.74
40384;BME280;26097;42.366;23.818;2022-07-10T15:04:38;93790.50;;;22.03;52.76
40384;BME280;26097;42.366;23.818;2022-07-10T15:07:39;93780.84;;;21.95;53.11
40384;BME280;26097;42.366;23.818;2022-07-10T15:10:39;93788.66;;;21.75;52.56
40384;BME280;26097;42.366;23.818;2022-07-10T15:13:42;93794.28;;;21.65;53.26
40384;BME280;26097;42.366;23.818;2022-07-10T15:16:43;93804.09;;;21.65;52.37
40384;BME280;26097;42.366;23.818;2022-07-10T15:19:43;93800.53;;;21.58;52.42
40384;BME280;26097;42.366;23.818;2022-07-10T15:22:43;93806.59;;;21.51;52.78
40384;BME280;26097;42.366;23.818;2022-07-10T15:25:44;93805.53;;;21.46;53.18
40384;BME280;26097;42.366;23.818;2022-07-10T15:28:44;93799.03;;;21.48;53.25
40384;BME280;26097;42.366;23.818;2022-07-10T15:31:45;93799.59;;;21.44;53.22
40384;BME280;26097;42.366;23.818;2022-07-10T15:34:45;93812.31;;;21.26;54.05
40384;BME280;26097;42.366;23.818;2022-07-10T15:37:46;93829.59;;;21.22;54.33
40384;BME280;26097;42.366;23.818;2022-07-10T15:40:46;93828.44;;;21.32;55.60
40384;BME280;26097;42.366;23.818;2022-07-10T15:43:47;93836.41;;;21.32;55.86
40384;BME280;26097;42.366;23.818;2022-07-10T15:46:47;93837.66;;;21.36;55.20
40384;BME280;26097;42.366;23.818;2022-07-10T15:49:47;93841.94;;;21.59;56.02
40384;BME280;26097;42.366;23.818;2022-07-10T15:52:48;93835.97;;;22.00;53.42
40384;BME280;26097;42.366;23.818;2022-07-10T15:55:49;93838.38;;;22.23;52.50
40384;BME280;26097;42.366;23.818;2022-07-10T15:58:49;93844.25;;;21.90;48.62